Time;durP1;ratioP1;P1;durP2;ratioP2;P2;SDS_P1;SDS_P2;PMS_P1;PMS_P2;Temp;Humidity;BMP_temperature;BMP_pressure;BME280_temperature;BME280_humidity;BME280_pressure;Samples;Min_cycle;Max_cycle;Signal;HPM_P1;HPM_P2
2023/01/18 00:01:10;;;;;;;30.10;8.05;;;14.40;99.90;;;;;;5065796;28;20429;-74
2023/01/18 00:03:38;;;;;;;17.90;6.75;;;14.40;99.90;;;;;;5068320;28;20028;-73
2023/01/18 00:06:08;;;;;;;20.85;8.65;;;14.40;99.90;;;;;;5068772;28;20255;-74
2023/01/18 00:08:37;;;;;;;17.55;8.48;;;14.40;99.90;;;;;;5067587;28;20047;-74
2023/01/18 00:11:07;;;;;;;22.75;7.70;;;14.40;99.90;;;;;;5066957;28;20537;-74
2023/01/18 00:13:35;;;;;;;21.25;7.72;;;14.40;99.90;;;;;;5069882;28;20036;-74
2023/01/18 00:16:10;;;;;;;29.42;8.57;;;14.50;99.90;;;;;;5069238;28;20437;-74
2023/01/18 00:18:38;;;;;;;18.20;7.68;;;14.50;99.90;;;;;;5068209;28;20036;-74
2023/01/18 00:21:08;;;;;;;42.10;11.52;;;14.50;99.90;;;;;;5067695;28;20366;-74
2023/01/18 00:23:37;;;;;;;23.80;6.32;;;14.50;99.90;;;;;;5049836;28;20045;-74
2023/01/18 00:26:07;;;;;;;22.42;7.88;;;14.50;99.90;;;;;;5050649;28;20534;-74
2023/01/18 00:28:35;;;;;;;22.40;8.88;;;14.50;99.90;;;;;;5068875;28;20537;-74
2023/01/18 00:31:10;;;;;;;20.65;6.93;;;14.50;99.90;;;;;;5065739;28;20448;-75
2023/01/18 00:33:40;;;;;;;20.58;8.85;;;14.50;99.90;;;;;;5069373;28;20045;-74
2023/01/18 00:36:08;;;;;;;24.85;8.27;;;14.50;99.90;;;;;;5065624;28;20049;-74
2023/01/18 00:38:36;;;;;;;26.13;8.32;;;14.50;99.90;;;;;;5067403;28;20056;-74
2023/01/18 00:41:04;;;;;;;26.52;8.43;;;14.50;99.90;;;;;;5043569;28;20044;-74
2023/01/18 00:43:37;;;;;;;23.42;7.93;;;14.50;99.90;;;;;;5067202;28;20045;-74
2023/01/18 00:46:12;;;;;;;23.63;9.35;;;14.50;99.90;;;;;;5064043;28;20513;-74
2023/01/18 00:48:41;;;;;;;31.15;9.60;;;14.40;99.90;;;;;;5067122;28;20033;-74
2023/01/18 00:51:11;;;;;;;26.67;8.27;;;14.40;99.90;;;;;;5064564;28;20473;-74
2023/01/18 00:53:44;;;;;;;38.92;11.23;;;14.40;99.90;;;;;;5068574;28;20149;-73
2023/01/18 00:56:15;;;;;;;23.25;8.50;;;14.40;99.90;;;;;;5068091;28;20047;-74
2023/01/18 00:58:44;;;;;;;34.55;10.07;;;14.40;99.90;;;;;;5051623;28;20072;-73
2023/01/18 01:01:12;;;;;;;27.15;9.55;;;14.30;99.90;;;;;;5056568;28;20040;-74
2023/01/18 01:06:45;;;;;;;36.28;7.97;;;14.30;99.90;;;;;;5062206;28;20143;-75
2023/01/18 01:09:19;;;;;;;28.85;8.73;;;14.20;99.90;;;;;;5067572;28;20045;-74
2023/01/18 01:28:28;;;;;;;19.15;8.13;;;14.10;99.90;;;;;;5068272;28;20446;-74
2023/01/18 01:30:57;;;;;;;19.35;7.95;;;14.20;99.90;;;;;;5057169;28;20055;-74
2023/01/18 01:33:25;;;;;;;37.60;8.18;;;14.10;99.90;;;;;;5066794;28;20138;-74
2023/01/18 01:35:57;;;;;;;23.63;10.02;;;14.10;99.90;;;;;;5066588;28;20096;-73
2023/01/18 01:38:26;;;;;;;20.92;8.18;;;14.20;99.90;;;;;;5067452;28;20068;-74
2023/01/18 01:41:05;;;;;;;29.08;7.60;;;14.10;99.90;;;;;;5065918;28;20048;-73
2023/01/18 01:43:50;;;;;;;28.25;9.13;;;14.20;99.90;;;;;;5066668;28;20452;-74
2023/01/18 01:46:45;;;;;;;30.90;9.63;;;14.10;99.90;;;;;;5067609;28;20385;-74
2023/01/18 01:49:33;;;;;;;23.50;9.43;;;14.10;99.90;;;;;;5064861;28;20102;-73
2023/01/18 01:52:05;;;;;;;19.52;6.93;;;14.10;99.90;;;;;;5049934;28;20044;-73
2023/01/18 01:54:53;;;;;;;25.17;7.47;;;14.10;99.90;;;;;;5065715;28;20089;-74
2023/01/18 01:57:37;;;;;;;21.63;10.77;;;14.10;99.90;;;;;;5066385;28;20052;-74
2023/01/18 02:00:12;;;;;;;29.38;7.13;;;14.10;99.90;;;;;;5064323;28;20102;-73
2023/01/18 02:02:43;;;;;;;27.50;7.65;;;14.00;99.90;;;;;;5067376;28;20127;-73
2023/01/18 02:05:14;;;;;;;24.55;10.82;;;14.10;99.90;;;;;;5063830;28;20036;-74
2023/01/18 02:07:42;;;;;;;29.85;7.82;;;14.00;99.90;;;;;;5067593;28;20055;-73
2023/01/18 02:10:10;;;;;;;30.65;7.45;;;14.00;99.90;;;;;;5048739;28;20044;-72
2023/01/18 02:12:41;;;;;;;20.73;9.45;;;14.00;99.90;;;;;;5067396;28;20113;-73
2023/01/18 02:15:09;;;;;;;35.22;9.95;;;14.00;99.90;;;;;;5064811;28;20155;-73
2023/01/18 02:18:13;;;;;;;21.88;8.45;;;13.90;99.90;;;;;;5066316;28;20057;-73
2023/01/18 02:21:09;;;;;;;24.40;7.00;;;14.00;99.90;;;;;;5057579;28;20441;-74
2023/01/18 02:24:05;;;;;;;27.85;7.10;;;13.90;99.90;;;;;;5059269;28;20402;-74
2023/01/18 02:26:45;;;;;;;27.00;8.52;;;13.90;99.90;;;;;;5048217;28;20047;-74
2023/01/18 02:29:39;;;;;;;18.00;7.57;;;13.90;99.90;;;;;;5051407;28;20059;-74
2023/01/18 02:32:07;;;;;;;18.85;7.93;;;13.90;99.90;;;;;;5067279;28;20502;-74
2023/01/18 02:34:49;;;;;;;33.03;8.25;;;13.90;99.90;;;;;;5049087;28;20037;-74
2023/01/18 02:37:36;;;;;;;25.63;7.55;;;13.90;99.90;;;;;;5054008;28;20083;-74
2023/01/18 02:40:25;;;;;;;25.93;9.43;;;13.90;99.90;;;;;;5067884;28;20052;-74
2023/01/18 02:48:42;;;;;;;28.27;7.63;;;14.00;99.90;;;;;;5067534;28;20123;-75
2023/01/18 02:51:10;;;;;;;33.15;10.13;;;14.00;99.90;;;;;;5066534;28;20043;-75
2023/01/18 02:53:41;;;;;;;22.27;7.53;;;14.00;99.90;;;;;;5066530;28;20792;-75
2023/01/18 02:56:16;;;;;;;24.50;6.85;;;14.00;99.90;;;;;;5065560;28;20052;-75
2023/01/18 02:58:50;;;;;;;28.30;8.55;;;14.00;99.90;;;;;;5066211;28;20048;-75
2023/01/18 03:01:26;;;;;;;19.95;7.43;;;14.10;99.90;;;;;;5066327;28;20470;-75
2023/01/18 03:03:55;;;;;;;;;;;14.00;99.90;;;;;;5066499;28;20059;-75
2023/01/18 03:06:26;;;;;;;26.25;7.95;;;14.00;99.90;;;;;;5060392;28;20417;-74
2023/01/18 03:08:55;;;;;;;23.02;8.70;;;14.00;99.90;;;;;;5056530;28;20088;-76
2023/01/18 03:11:42;;;;;;;21.77;6.72;;;14.00;99.90;;;;;;5062154;28;20071;-75
2023/01/18 03:14:31;;;;;;;21.30;8.77;;;14.10;99.90;;;;;;5059949;28;20052;-75
2023/01/18 03:17:10;;;;;;;29.35;7.13;;;14.00;99.90;;;;;;5046457;28;20115;-74
2023/01/18 03:20:07;;;;;;;19.33;7.20;;;14.10;99.90;;;;;;5038255;28;20076;-75
2023/01/18 03:25:28;;;;;;;21.05;8.82;;;14.00;99.90;;;;;;5067256;28;20052;-75
2023/01/18 03:33:44;;;;;;;28.10;6.97;;;14.00;99.90;;;;;;5060059;28;20505;-75
2023/01/18 03:36:27;;;;;;;18.85;7.40;;;14.00;99.90;;;;;;5067556;28;20068;-75
2023/01/18 03:39:01;;;;;;;16.70;6.35;;;14.00;99.90;;;;;;5070189;28;20036;-75
2023/01/18 03:41:35;;;;;;;23.05;6.68;;;14.00;99.90;;;;;;5070994;28;20475;-74
2023/01/18 03:44:09;;;;;;;15.20;7.60;;;14.00;99.90;;;;;;5070833;28;20056;-75
2023/01/18 03:46:39;;;;;;;15.70;7.22;;;14.00;99.90;;;;;;5049659;28;20148;-74
2023/01/18 03:49:07;;;;;;;23.77;6.65;;;14.00;99.90;;;;;;5064791;28;20040;-75
2023/01/18 03:52:12;;;;;;;24.15;8.98;;;14.00;99.90;;;;;;5068512;28;20135;-75
2023/01/18 03:55:08;;;;;;;26.55;8.38;;;14.00;99.90;;;;;;5059190;28;20052;-75
2023/01/18 03:58:02;;;;;;;31.67;7.80;;;13.90;99.90;;;;;;5071181;28;20045;-75
2023/01/18 04:00:30;;;;;;;14.70;6.30;;;13.90;99.90;;;;;;5070828;28;20441;-75
2023/01/18 04:02:57;;;;;;;25.33;7.25;;;13.90;99.90;;;;;;5070799;28;20046;-74
2023/01/18 04:05:25;;;;;;;23.83;7.18;;;13.90;99.90;;;;;;5070046;28;20050;-75
2023/01/18 04:07:53;;;;;;;21.77;8.60;;;14.00;99.90;;;;;;5070131;28;20436;-75
2023/01/18 04:10:20;;;;;;;24.15;8.07;;;14.00;99.90;;;;;;5070130;28;20044;-74
2023/01/18 04:12:48;;;;;;;24.50;9.40;;;14.00;99.90;;;;;;5070484;28;20594;-75
2023/01/18 04:15:15;;;;;;;20.00;6.28;;;13.90;99.90;;;;;;5070298;28;20499;-75
2023/01/18 04:17:43;;;;;;;17.73;7.43;;;13.90;99.90;;;;;;5071419;28;20053;-75
2023/01/18 04:20:11;;;;;;;21.55;7.20;;;13.90;99.90;;;;;;5070135;28;20052;-74
2023/01/18 04:22:38;;;;;;;25.85;8.63;;;14.00;99.90;;;;;;5069929;28;20060;-75
2023/01/18 04:25:06;;;;;;;18.95;6.22;;;13.90;99.90;;;;;;5070601;28;20091;-75
2023/01/18 04:27:33;;;;;;;16.60;6.38;;;14.00;99.90;;;;;;5071462;28;20045;-75
2023/01/18 04:30:01;;;;;;;16.33;7.18;;;14.00;99.90;;;;;;5071257;28;20041;-74
2023/01/18 04:32:28;;;;;;;26.52;6.03;;;14.00;99.90;;;;;;5050527;28;20823;-74
2023/01/18 04:34:56;;;;;;;18.60;7.65;;;14.00;99.90;;;;;;5055835;28;20035;-74
2023/01/18 04:37:29;;;;;;;21.02;5.57;;;14.00;99.90;;;;;;5071660;28;20044;-74
2023/01/18 04:39:56;;;;;;;21.77;6.45;;;14.10;99.90;;;;;;5070131;28;20127;-74
2023/01/18 04:42:24;;;;;;;17.45;8.10;;;14.00;99.90;;;;;;5071951;28;20051;-75
2023/01/18 04:44:52;;;;;;;21.60;5.85;;;14.00;99.90;;;;;;5070584;28;20058;-75
2023/01/18 04:47:19;;;;;;;13.52;5.88;;;14.10;99.90;;;;;;5068964;28;20112;-75
2023/01/18 04:49:47;;;;;;;23.77;6.15;;;14.10;99.90;;;;;;5070180;28;20053;-75
2023/01/18 04:52:14;;;;;;;19.80;7.50;;;14.10;99.90;;;;;;5069631;28;20040;-74
2023/01/18 04:54:43;;;;;;;10.10;5.40;;;14.00;99.90;;;;;;5070850;28;20124;-74
2023/01/18 04:57:11;;;;;;;17.38;7.15;;;14.10;99.90;;;;;;5071180;28;20044;-75
2023/01/18 04:59:39;;;;;;;13.20;5.30;;;14.10;99.90;;;;;;5070730;28;20044;-75
2023/01/18 05:02:07;;;;;;;18.35;6.15;;;14.00;99.90;;;;;;5053141;28;20044;-74
2023/01/18 05:04:35;;;;;;;18.42;8.07;;;14.10;99.90;;;;;;5070306;28;20041;-75
2023/01/18 05:07:03;;;;;;;22.40;6.88;;;14.20;99.90;;;;;;5052334;28;20048;-75
2023/01/18 05:09:30;;;;;;;15.93;6.53;;;14.20;99.90;;;;;;5070800;28;20043;-75
2023/01/18 05:11:58;;;;;;;15.90;5.57;;;14.20;99.90;;;;;;5069846;28;20080;-75
2023/01/18 05:14:25;;;;;;;24.38;7.38;;;14.20;99.90;;;;;;5069488;28;20033;-75
2023/01/18 05:16:53;;;;;;;19.42;4.43;;;14.20;99.90;;;;;;5069792;28;20045;-75
2023/01/18 05:19:20;;;;;;;17.60;6.30;;;14.20;99.90;;;;;;5068876;28;20217;-75
2023/01/18 05:21:47;;;;;;;18.55;5.15;;;14.20;99.90;;;;;;5069072;28;20040;-75
2023/01/18 05:24:15;;;;;;;22.20;8.27;;;14.20;99.90;;;;;;5069562;28;20130;-74
2023/01/18 05:26:43;;;;;;;13.25;6.05;;;14.30;99.90;;;;;;5069172;28;20068;-75
2023/01/18 05:29:11;;;;;;;15.98;5.55;;;14.30;99.90;;;;;;5052623;28;20195;-75
2023/01/18 05:31:38;;;;;;;13.43;6.55;;;14.20;99.90;;;;;;5070251;28;20094;-74
2023/01/18 05:34:06;;;;;;;13.18;5.20;;;14.20;99.90;;;;;;5070065;28;20032;-75
2023/01/18 05:36:34;;;;;;;21.42;7.22;;;14.20;99.90;;;;;;5069940;28;20064;-75
2023/01/18 05:39:01;;;;;;;16.23;5.95;;;14.20;99.90;;;;;;5069595;28;20037;-75
2023/01/18 05:41:29;;;;;;;15.73;6.63;;;14.20;99.90;;;;;;5068332;28;20041;-75
2023/01/18 05:43:56;;;;;;;23.38;6.72;;;14.30;99.90;;;;;;5069181;28;20861;-75
2023/01/18 05:46:24;;;;;;;19.20;7.07;;;14.20;99.90;;;;;;5069778;28;20127;-75
2023/01/18 05:48:57;;;;;;;17.63;7.53;;;14.10;99.90;;;;;;5070230;28;20056;-75
2023/01/18 05:51:25;;;;;;;28.52;7.47;;;14.10;99.90;;;;;;5068957;28;20052;-75
2023/01/18 05:53:52;;;;;;;21.67;7.10;;;14.10;99.90;;;;;;5070249;28;20055;-75
2023/01/18 05:56:20;;;;;;;27.65;9.77;;;14.10;99.90;;;;;;5067325;28;20048;-74
2023/01/18 05:58:47;;;;;;;17.75;6.70;;;14.10;99.90;;;;;;5068820;28;20044;-75
2023/01/18 06:01:15;;;;;;;19.30;5.68;;;14.10;99.90;;;;;;5069661;28;20044;-74
2023/01/18 06:03:42;;;;;;;20.55;7.93;;;14.10;99.90;;;;;;5069885;28;20048;-74
2023/01/18 06:06:09;;;;;;;15.55;6.45;;;14.10;99.90;;;;;;5067714;28;20044;-75
2023/01/18 06:08:37;;;;;;;16.77;6.78;;;14.10;99.90;;;;;;5068110;28;20522;-75
2023/01/18 06:11:06;;;;;;;18.27;7.78;;;14.10;99.90;;;;;;5069036;28;20509;-75
2023/01/18 06:13:34;;;;;;;15.77;6.85;;;14.10;99.90;;;;;;5048495;28;20159;-75
2023/01/18 06:16:02;;;;;;;11.85;6.20;;;14.20;99.90;;;;;;5060330;28;20041;-75
2023/01/18 06:18:31;;;;;;;22.25;7.50;;;14.20;99.90;;;;;;5031664;28;20820;-75
2023/01/18 06:21:00;;;;;;;25.58;6.93;;;14.10;99.90;;;;;;5031368;28;20139;-74
2023/01/18 06:23:29;;;;;;;20.20;7.28;;;14.20;99.90;;;;;;5067346;28;20569;-75
2023/01/18 06:25:56;;;;;;;20.65;5.78;;;14.30;99.90;;;;;;5069206;28;20052;-75
2023/01/18 06:28:24;;;;;;;18.13;6.57;;;14.30;99.90;;;;;;5051315;28;20044;-75
2023/01/18 06:30:54;;;;;;;25.00;7.72;;;14.40;99.90;;;;;;5067481;28;20060;-74
2023/01/18 06:33:23;;;;;;;21.40;7.30;;;14.50;99.90;;;;;;5068749;28;20055;-75
2023/01/18 06:35:51;;;;;;;19.67;6.13;;;14.50;99.90;;;;;;5068470;28;20114;-75
2023/01/18 06:38:19;;;;;;;29.92;8.70;;;14.60;99.90;;;;;;5051146;28;20124;-75
2023/01/18 06:40:47;;;;;;;22.10;8.38;;;14.80;99.90;;;;;;5068110;28;20222;-75
2023/01/18 06:43:14;;;;;;;17.15;6.25;;;14.90;99.90;;;;;;5067537;28;20052;-74
2023/01/18 06:45:42;;;;;;;27.50;9.27;;;15.00;99.90;;;;;;5068931;28;20044;-74
2023/01/18 06:48:10;;;;;;;16.67;7.82;;;15.20;99.90;;;;;;5035195;28;20049;-75
2023/01/18 06:50:37;;;;;;;28.92;10.40;;;15.20;99.90;;;;;;5067609;28;20044;-74
2023/01/18 06:53:05;;;;;;;25.83;6.82;;;15.20;99.90;;;;;;5068904;28;20508;-75
2023/01/18 06:55:33;;;;;;;21.48;6.97;;;15.20;99.90;;;;;;5068199;28;20052;-75
2023/01/18 06:58:01;;;;;;;24.95;8.25;;;15.00;99.90;;;;;;5067122;28;20052;-75
2023/01/18 07:00:28;;;;;;;34.80;7.68;;;14.90;99.90;;;;;;5069075;28;20046;-75
2023/01/18 07:02:57;;;;;;;22.35;8.45;;;14.80;99.90;;;;;;5068111;28;20041;-75
2023/01/18 07:05:25;;;;;;;23.85;6.35;;;14.80;99.90;;;;;;5067211;28;20040;-75
2023/01/18 07:07:52;;;;;;;20.85;9.05;;;15.10;99.90;;;;;;5067978;28;20071;-75
2023/01/18 07:10:20;;;;;;;18.58;7.20;;;15.10;99.90;;;;;;5068618;28;20395;-75
2023/01/18 07:12:49;;;;;;;23.77;7.03;;;15.00;99.90;;;;;;5068335;28;20056;-75
2023/01/18 07:15:17;;;;;;;19.90;6.50;;;14.80;99.90;;;;;;5066974;28;20068;-75
2023/01/18 07:17:49;;;;;;;19.60;6.60;;;14.70;99.90;;;;;;5067005;28;20457;-74
2023/01/18 07:20:17;;;;;;;17.60;6.78;;;14.60;99.90;;;;;;5066650;28;20148;-74
2023/01/18 07:22:44;;;;;;;24.70;8.75;;;14.60;99.90;;;;;;5068704;28;20045;-75
2023/01/18 07:25:12;;;;;;;20.90;7.65;;;14.60;99.90;;;;;;5066438;28;20044;-75
2023/01/18 07:27:43;;;;;;;19.40;6.85;;;14.80;99.90;;;;;;5068407;28;20091;-74
2023/01/18 07:30:11;;;;;;;14.63;5.15;;;15.20;99.90;;;;;;5068616;28;20036;-74
2023/01/18 07:32:43;;;;;;;18.83;6.30;;;15.70;99.90;;;;;;5068283;28;20870;-75
2023/01/18 07:35:11;;;;;;;11.02;5.28;;;16.20;99.90;;;;;;5068303;28;20642;-75
2023/01/18 07:37:38;;;;;;;13.15;5.07;;;16.20;99.90;;;;;;5066572;28;20483;-75
2023/01/18 07:40:09;;;;;;;14.75;4.63;;;16.20;99.90;;;;;;5068432;28;20048;-75
2023/01/18 07:42:36;;;;;;;21.25;5.57;;;16.20;99.90;;;;;;5068389;28;20049;-75
2023/01/18 07:45:07;;;;;;;15.32;4.72;;;16.10;99.90;;;;;;5068136;28;20048;-75
2023/01/18 07:47:38;;;;;;;23.13;6.30;;;16.30;99.90;;;;;;5067732;28;20140;-75
2023/01/18 07:50:05;;;;;;;17.35;5.55;;;16.90;99.90;;;;;;5066821;28;20451;-75
2023/01/18 07:52:33;;;;;;;9.52;5.10;;;17.10;99.90;;;;;;5067892;28;20105;-75
2023/01/18 07:55:00;;;;;;;11.30;4.78;;;17.10;99.90;;;;;;5068184;28;20124;-75
2023/01/18 07:57:28;;;;;;;14.32;5.10;;;16.70;99.90;;;;;;5067814;28;20765;-74
2023/01/18 07:59:55;;;;;;;9.05;3.33;;;16.60;99.90;;;;;;5067851;28;20094;-74
2023/01/18 08:02:23;;;;;;;11.45;4.47;;;16.50;99.90;;;;;;5066651;28;20040;-75
2023/01/18 08:04:51;;;;;;;5.07;3.28;;;16.50;99.90;;;;;;5067920;28;20044;-75
2023/01/18 08:07:18;;;;;;;8.00;3.47;;;16.40;99.90;;;;;;5065777;28;20049;-75
2023/01/18 08:09:46;;;;;;;8.77;3.08;;;16.20;99.90;;;;;;5066943;28;20043;-74
2023/01/18 08:12:16;;;;;;;11.43;3.80;;;16.00;99.90;;;;;;5066742;28;20130;-75
2023/01/18 08:14:44;;;;;;;9.25;3.72;;;15.90;99.90;;;;;;5046098;28;20045;-74
2023/01/18 08:17:12;;;;;;;15.80;3.42;;;15.80;99.90;;;;;;5049456;28;20037;-74
2023/01/18 08:19:39;;;;;;;8.73;4.15;;;15.90;99.90;;;;;;5068166;28;20661;-75
2023/01/18 08:22:07;;;;;;;9.27;4.38;;;15.90;99.90;;;;;;5069856;28;20041;-74
2023/01/18 08:24:34;;;;;;;10.60;3.22;;;16.00;99.90;;;;;;5071515;28;20448;-75
2023/01/18 08:27:02;;;;;;;13.88;3.92;;;16.10;99.90;;;;;;5070117;28;20087;-75
2023/01/18 08:29:29;;;;;;;5.93;2.58;;;16.20;99.90;;;;;;5071665;28;20131;-74
2023/01/18 08:31:59;;;;;;;7.05;3.47;;;16.30;99.90;;;;;;5071396;28;20041;-74
2023/01/18 08:34:27;;;;;;;8.38;2.83;;;16.30;99.90;;;;;;5071201;28;20044;-74
2023/01/18 08:36:54;;;;;;;6.72;2.80;;;16.30;99.90;;;;;;5071744;28;20131;-75
2023/01/18 08:39:22;;;;;;;7.70;2.75;;;16.30;99.90;;;;;;5071689;28;20047;-75
2023/01/18 08:41:49;;;;;;;7.30;2.95;;;16.30;99.90;;;;;;5053755;28;20053;-74
2023/01/18 08:44:17;;;;;;;7.35;3.15;;;16.30;99.90;;;;;;5071500;28;20067;-74
2023/01/18 08:46:45;;;;;;;5.85;3.35;;;16.20;99.90;;;;;;5053142;28;20052;-75
2023/01/18 08:49:13;;;;;;;12.05;4.30;;;16.20;99.90;;;;;;5053102;28;20052;-74
2023/01/18 08:51:41;;;;;;;9.20;2.95;;;16.10;99.90;;;;;;5070515;28;20135;-74
2023/01/18 08:54:08;;;;;;;8.05;3.17;;;16.00;99.90;;;;;;5070945;28;20114;-74
2023/01/18 08:56:36;;;;;;;9.95;2.90;;;16.00;99.90;;;;;;5070847;28;20118;-74
2023/01/18 08:59:07;;;;;;;9.35;2.95;;;16.00;99.90;;;;;;5053371;28;20056;-74
2023/01/18 09:01:35;;;;;;;6.93;3.88;;;16.00;99.90;;;;;;5070844;28;20131;-74
2023/01/18 09:04:02;;;;;;;5.78;2.63;;;16.00;99.90;;;;;;5071313;28;20045;-74
2023/01/18 09:06:32;;;;;;;8.95;3.92;;;16.00;99.90;;;;;;5070372;28;20037;-75
2023/01/18 09:09:00;;;;;;;7.78;3.10;;;15.90;99.90;;;;;;5069417;28;20128;-74
2023/01/18 09:11:28;;;;;;;9.20;4.22;;;16.00;99.90;;;;;;5070695;28;20049;-74
2023/01/18 09:13:55;;;;;;;12.10;3.40;;;15.90;99.90;;;;;;5070549;28;20040;-75
2023/01/18 09:16:29;;;;;;;13.18;5.30;;;16.00;99.90;;;;;;5068905;28;20048;-75
2023/01/18 09:18:57;;;;;;;14.35;5.85;;;16.10;99.90;;;;;;5068665;28;20078;-74
2023/01/18 09:21:27;;;;;;;18.15;6.97;;;16.10;99.90;;;;;;5069391;28;20044;-75
2023/01/18 09:23:55;;;;;;;9.88;4.43;;;16.20;99.90;;;;;;5052919;28;20482;-75
2023/01/18 09:26:22;;;;;;;7.53;4.80;;;16.30;99.90;;;;;;5070183;28;20048;-75
2023/01/18 09:28:51;;;;;;;13.73;5.78;;;16.50;99.90;;;;;;5070468;28;20117;-74
2023/01/18 09:31:20;;;;;;;12.90;4.53;;;16.60;99.90;;;;;;5068960;28;20040;-75
2023/01/18 09:33:48;;;;;;;16.13;4.70;;;16.80;99.90;;;;;;5068923;28;20044;-74
2023/01/18 09:36:25;;;;;;;17.75;4.60;;;16.90;99.90;;;;;;5069021;28;20044;-75
2023/01/18 09:38:54;;;;;;;10.88;4.15;;;16.90;99.90;;;;;;5070519;28;20161;-75
2023/01/18 09:41:33;;;;;;;12.98;5.90;;;16.90;99.90;;;;;;5068474;28;20052;-75
2023/01/18 09:44:23;;;;;;;11.60;3.63;;;16.90;99.90;;;;;;5055098;28;20052;-74
2023/01/18 09:47:04;;;;;;;22.85;6.13;;;17.10;99.90;;;;;;5068634;28;20087;-74
2023/01/18 09:49:42;;;;;;;16.10;3.97;;;17.10;99.90;;;;;;5068735;28;20139;-74
2023/01/18 09:52:33;;;;;;;13.13;4.78;;;17.10;99.90;;;;;;5069105;28;20040;-74
2023/01/18 09:55:00;;;;;;;17.45;4.13;;;17.20;99.90;;;;;;5069820;28;20051;-74
2023/01/18 09:57:56;;;;;;;14.00;6.45;;;17.20;99.90;;;;;;5069094;28;20040;-74
2023/01/18 10:00:28;;;;;;;15.15;5.47;;;17.00;99.90;;;;;;5049780;28;20071;-74
2023/01/18 10:03:03;;;;;;;15.50;5.38;;;16.80;99.90;;;;;;5060349;28;20051;-75
2023/01/18 10:05:35;;;;;;;10.45;4.85;;;16.80;99.90;;;;;;5067868;28;20490;-74
2023/01/18 10:08:14;;;;;;;13.07;4.97;;;16.80;99.90;;;;;;5067712;28;20474;-74
2023/01/18 10:10:45;;;;;;;17.60;6.13;;;16.60;99.90;;;;;;5068851;28;20071;-74
2023/01/18 10:13:41;;;;;;;14.27;4.78;;;16.50;99.90;;;;;;5069118;28;20458;-75
2023/01/18 10:16:13;;;;;;;12.25;4.50;;;16.40;99.90;;;;;;5069908;28;20497;-74
2023/01/18 10:18:44;;;;;;;15.32;4.85;;;16.40;99.90;;;;;;5068170;28;20157;-75
2023/01/18 10:21:27;;;;;;;15.40;4.65;;;16.40;99.90;;;;;;5069193;28;20186;-74
2023/01/18 10:24:18;;;;;;;17.75;5.80;;;16.40;99.90;;;;;;5069030;28;20049;-74
2023/01/18 10:26:47;;;;;;;17.58;5.45;;;16.40;99.90;;;;;;5068832;28;20090;-74
2023/01/18 10:29:38;;;;;;;18.30;5.90;;;16.50;99.90;;;;;;5069153;28;20048;-74
2023/01/18 10:32:16;;;;;;;13.23;5.22;;;16.60;99.90;;;;;;5060328;28;20075;-74
2023/01/18 10:34:49;;;;;;;12.20;4.70;;;16.60;99.90;;;;;;5067949;28;20106;-74
2023/01/18 10:37:29;;;;;;;17.13;6.32;;;16.60;99.90;;;;;;5051215;28;20490;-74
2023/01/18 10:40:03;;;;;;;11.38;4.65;;;16.60;99.90;;;;;;5067890;28;20076;-74
2023/01/18 10:42:44;;;;;;;12.40;4.07;;;16.70;99.90;;;;;;5067257;28;20045;-74
2023/01/18 10:45:19;;;;;;;18.05;6.05;;;16.70;99.90;;;;;;5067936;28;20159;-74
2023/01/18 10:47:51;;;;;;;27.25;6.00;;;16.70;99.90;;;;;;5069048;28;20044;-74
2023/01/18 10:50:31;;;;;;;15.38;5.53;;;16.80;99.90;;;;;;5068411;28;20045;-74
2023/01/18 10:53:22;;;;;;;11.32;4.57;;;16.70;99.90;;;;;;5067812;28;20044;-74
2023/01/18 10:56:17;;;;;;;10.75;3.80;;;16.70;99.90;;;;;;5067491;28;20044;-74
2023/01/18 10:58:50;;;;;;;15.18;4.95;;;16.70;99.90;;;;;;5068936;28;20079;-74
2023/01/18 11:01:22;;;;;;;20.10;4.82;;;16.70;99.90;;;;;;5050524;28;20048;-74
2023/01/18 11:03:53;;;;;;;15.32;4.57;;;16.80;99.90;;;;;;5069080;28;20051;-74
2023/01/18 11:06:23;;;;;;;10.85;5.13;;;16.80;99.90;;;;;;5069122;28;20048;-74
2023/01/18 11:08:51;;;;;;;14.23;5.60;;;16.90;99.90;;;;;;5068571;28;20075;-74
2023/01/18 11:14:27;;;;;;;9.55;4.30;;;16.90;99.90;;;;;;5048534;28;20126;-74
2023/01/18 11:16:59;;;;;;;27.45;5.63;;;17.00;99.90;;;;;;5064547;28;20040;-74
2023/01/18 11:19:28;;;;;;;15.75;5.57;;;17.10;99.90;;;;;;5066714;28;20053;-74
2023/01/18 11:21:55;;;;;;;16.73;5.55;;;17.10;99.90;;;;;;5068599;28;20048;-74
2023/01/18 11:24:29;;;;;;;22.85;6.30;;;17.20;99.90;;;;;;5049547;28;20076;-74
2023/01/18 11:26:58;;;;;;;29.63;7.05;;;17.00;99.90;;;;;;5068705;28;20054;-74
2023/01/18 11:29:34;;;;;;;22.38;6.97;;;17.10;99.90;;;;;;5050075;28;20049;-74
2023/01/18 11:32:04;;;;;;;;;;;17.20;99.90;;;;;;5067261;28;20055;-75
2023/01/18 11:34:38;;;;;;;32.55;9.10;;;17.30;99.90;;;;;;5050952;28;19929;-74
2023/01/18 11:37:35;;;;;;;33.92;10.35;;;17.40;99.90;;;;;;5050404;28;20068;-74
2023/01/18 11:40:19;;;;;;;34.13;8.45;;;17.40;99.90;;;;;;5050844;28;20133;-74
2023/01/18 11:42:52;;;;;;;46.40;11.20;;;17.30;99.90;;;;;;5067317;28;20052;-74
2023/01/18 11:45:28;;;;;;;31.67;9.25;;;17.30;99.90;;;;;;5068037;28;20036;-74
2023/01/18 11:48:08;;;;;;;;;;;17.10;99.90;;;;;;5055992;28;20075;-74
2023/01/18 11:50:47;;;;;;;26.83;6.82;;;17.00;99.90;;;;;;5066102;28;19920;-74
2023/01/18 11:53:47;;;;;;;38.20;9.57;;;17.10;99.90;;;;;;5066200;28;20162;-74
2023/01/18 11:56:33;;;;;;;36.05;9.32;;;17.00;99.90;;;;;;5072257;28;20033;-74
2023/01/18 11:59:02;;;;;;;42.42;9.23;;;16.80;99.90;;;;;;5070967;28;20076;-74
2023/01/18 12:02:06;;;;;;;35.45;7.78;;;16.80;99.90;;;;;;5054537;28;20044;-74
2023/01/18 12:04:55;;;;;;;35.50;11.35;;;16.70;99.90;;;;;;5050657;28;20418;-73
2023/01/18 12:08:13;;;;;;;44.97;10.65;;;16.60;99.90;;;;;;5052736;28;20040;-74
2023/01/18 12:10:59;;;;;;;;;;;16.60;99.90;;;;;;5017850;28;20042;-75
2023/01/18 12:13:42;;;;;;;40.55;11.50;;;16.50;99.90;;;;;;5028951;28;19959;-74
2023/01/18 12:16:09;;;;;;;51.75;11.98;;;16.50;99.90;;;;;;5059603;28;20044;-74
2023/01/18 12:19:01;;;;;;;56.80;13.13;;;16.50;99.90;;;;;;5058892;28;20041;-74
2023/01/18 12:21:55;;;;;;;60.28;14.00;;;16.40;99.90;;;;;;5051968;28;20277;-74
2023/01/18 12:25:13;;;;;;;44.85;12.52;;;16.40;99.90;;;;;;5033822;28;20056;-74
2023/01/18 12:28:12;;;;;;;51.47;13.55;;;16.40;99.90;;;;;;5043653;28;20057;-74
2023/01/18 12:31:06;;;;;;;49.47;13.35;;;16.40;99.90;;;;;;5062539;28;20517;-74
2023/01/18 12:33:44;;;;;;;57.42;15.57;;;16.40;99.90;;;;;;5065953;28;20080;-74
2023/01/18 12:36:51;;;;;;;58.78;17.52;;;16.40;99.90;;;;;;5070255;28;20067;-74
2023/01/18 12:39:29;;;;;;;62.35;17.65;;;16.30;99.90;;;;;;5025405;28;20056;-74
2023/01/18 12:42:29;;;;;;;65.68;18.60;;;16.40;99.90;;;;;;5028852;28;20435;-74
2023/01/18 12:45:01;;;;;;;67.60;16.33;;;16.40;99.90;;;;;;5046443;28;20126;-74
2023/01/18 12:47:38;;;;;;;68.03;16.15;;;16.40;99.90;;;;;;5069747;28;20052;-74
2023/01/18 12:50:31;;;;;;;87.05;19.80;;;16.40;99.90;;;;;;5069803;28;20125;-74
2023/01/18 12:53:09;;;;;;;79.57;20.40;;;16.40;99.90;;;;;;5070164;28;20080;-74
2023/01/18 12:55:39;;;;;;;57.42;15.40;;;16.40;99.90;;;;;;5069112;28;20052;-75
2023/01/18 12:58:17;;;;;;;68.38;17.13;;;16.40;99.90;;;;;;5068824;28;20676;-74
2023/01/18 13:00:53;;;;;;;85.63;19.38;;;16.40;99.90;;;;;;5068423;28;20403;-74
2023/01/18 13:03:24;;;;;;;68.22;16.67;;;16.40;99.90;;;;;;5069557;28;20044;-74
2023/01/18 13:05:56;;;;;;;55.92;16.60;;;16.40;99.90;;;;;;5070520;28;20091;-73
2023/01/18 13:08:33;;;;;;;80.03;19.40;;;16.40;99.90;;;;;;5070871;28;20377;-74
2023/01/18 13:11:12;;;;;;;80.10;19.48;;;16.40;99.90;;;;;;5052746;28;20076;-74
2023/01/18 13:13:43;;;;;;;81.07;19.00;;;16.40;99.90;;;;;;5070485;28;20037;-74
2023/01/18 13:16:27;;;;;;;80.05;18.63;;;16.50;99.90;;;;;;5069789;28;20032;-74
2023/01/18 13:18:59;;;;;;;102.10;20.13;;;16.50;99.90;;;;;;5070423;28;20049;-74
2023/01/18 13:22:03;;;;;;;89.00;24.42;;;16.50;99.90;;;;;;5068851;28;20061;-74
2023/01/18 13:25:17;;;;;;;112.25;24.10;;;16.40;99.90;;;;;;5069368;28;20045;-74
2023/01/18 13:27:58;;;;;;;88.00;20.70;;;16.30;99.90;;;;;;5069141;28;20548;-74
2023/01/18 13:30:33;;;;;;;80.43;19.02;;;16.30;99.90;;;;;;5052299;28;20139;-74
2023/01/18 13:33:12;;;;;;;85.90;23.42;;;16.20;99.90;;;;;;5033642;28;20056;-74
2023/01/18 13:35:53;;;;;;;82.88;21.05;;;16.10;99.90;;;;;;5069959;28;20044;-74
2023/01/18 13:38:25;;;;;;;91.68;19.30;;;16.10;99.90;;;;;;5069685;28;20075;-74
2023/01/18 13:41:11;;;;;;;69.50;19.45;;;16.10;99.90;;;;;;5069518;28;20066;-74
2023/01/18 13:43:40;;;;;;;74.03;21.27;;;16.10;99.90;;;;;;5069589;28;20812;-74
2023/01/18 13:46:08;;;;;;;62.28;16.85;;;16.00;99.90;;;;;;5068806;28;20506;-74
2023/01/18 13:48:55;;;;;;;85.88;21.25;;;16.00;99.90;;;;;;5069405;28;20082;-75